createdAt,value
2016-09-29T00:00:39.689Z,0
2016-09-29T00:01:39.260Z,0
2016-09-29T00:02:39.550Z,0
2016-09-29T00:03:39.268Z,0
2016-09-29T00:04:38.992Z,0
2016-09-29T00:05:39.386Z,0
2016-09-29T00:06:39.023Z,0
2016-09-29T00:07:39.183Z,0
2016-09-29T00:08:39.238Z,0
2016-09-29T00:09:38.877Z,0
2016-09-29T00:10:38.839Z,0
2016-09-29T00:11:38.987Z,0
2016-09-29T00:12:38.734Z,0
2016-09-29T00:13:38.733Z,0
2016-09-29T00:14:38.657Z,0
2016-09-29T00:15:38.683Z,0
2016-09-29T00:16:38.244Z,0
2016-09-29T00:17:38.996Z,0
2016-09-29T00:18:38.455Z,0
2016-09-29T00:19:38.712Z,0
2016-09-29T00:20:38.058Z,0
2016-09-29T00:21:38.644Z,0
2016-09-29T00:22:38.274Z,0
2016-09-29T00:23:38.521Z,0
2016-09-29T00:24:38.468Z,0
2016-09-29T00:25:38.112Z,0
2016-09-29T00:26:38.083Z,0
2016-09-29T00:27:38.027Z,0
2016-09-29T00:28:38.360Z,0
2016-09-29T00:29:37.628Z,0
2016-09-29T00:30:38.188Z,0
2016-09-29T00:31:38.201Z,0
2016-09-29T00:32:38.127Z,0
2016-09-29T00:33:38.118Z,0
2016-09-29T00:34:37.387Z,0
2016-09-29T00:35:37.966Z,0
2016-09-29T00:36:37.603Z,0
2016-09-29T00:37:37.878Z,0
2016-09-29T00:38:37.707Z,0
2016-09-29T00:39:37.477Z,0
2016-09-29T00:40:37.726Z,0
2016-09-29T00:41:37.669Z,0
2016-09-29T00:42:37.625Z,0
2016-09-29T00:43:37.585Z,0
2016-09-29T00:44:37.217Z,0
2016-09-29T00:45:37.697Z,0
2016-09-29T00:46:37.448Z,0
2016-09-29T00:47:37.399Z,0
2016-09-29T00:48:37.063Z,0
2016-09-29T00:49:37.357Z,0
2016-09-29T00:50:37.326Z,0
2016-09-29T00:51:37.197Z,0
2016-09-29T00:52:37.274Z,0
2016-09-29T00:53:37.108Z,0
2016-09-29T00:54:37.071Z,0
2016-09-29T00:55:37.009Z,0
2016-09-29T00:56:36.966Z,0
2016-09-29T00:57:36.629Z,0
2016-09-29T00:58:36.917Z,0
2016-09-29T00:59:36.521Z,0
2016-09-29T01:00:36.680Z,0
2016-09-29T01:01:36.731Z,0
2016-09-29T01:02:36.737Z,0
2016-09-29T01:03:36.654Z,0
2016-09-29T01:04:35.980Z,0
2016-09-29T01:05:36.598Z,0
2016-09-29T01:06:36.714Z,0
2016-09-29T01:07:36.214Z,0
2016-09-29T01:08:36.118Z,0
2016-09-29T01:09:36.788Z,0
2016-09-29T01:10:36.611Z,0
2016-09-29T01:11:36.470Z,0
2016-09-29T01:12:36.240Z,0
2016-09-29T01:13:35.886Z,0
2016-09-29T01:14:35.889Z,0
2016-09-29T01:15:36.081Z,0
2016-09-29T01:16:36.055Z,0
2016-09-29T01:17:35.993Z,0
2016-09-29T01:18:35.639Z,0
2016-09-29T01:19:35.837Z,0
2016-09-29T01:20:35.851Z,0
2016-09-29T01:21:35.497Z,0
2016-09-29T01:22:35.750Z,0
2016-09-29T01:23:35.450Z,0
2016-09-29T01:24:35.667Z,0
2016-09-29T01:25:35.875Z,0
2016-09-29T01:26:35.637Z,0
2016-09-29T01:27:35.531Z,0
2016-09-29T01:28:35.658Z,0
2016-09-29T01:29:35.115Z,0
2016-09-29T01:30:35.120Z,0
2016-09-29T01:31:34.725Z,0
2016-09-29T01:32:34.988Z,0
2016-09-29T01:33:35.228Z,0
2016-09-29T01:34:34.881Z,0
2016-09-29T01:35:34.835Z,0
2016-09-29T01:36:35.251Z,0
2016-09-29T01:37:34.754Z,0
2016-09-29T01:38:34.687Z,0
2016-09-29T01:39:34.961Z,0
2016-09-29T01:40:35.100Z,0
2016-09-29T01:41:34.743Z,0
2016-09-29T01:42:34.864Z,0
2016-09-29T01:43:34.773Z,0
2016-09-29T01:44:34.710Z,0
2016-09-29T01:45:34.407Z,0
2016-09-29T01:46:34.628Z,0
2016-09-29T01:47:34.576Z,0
2016-09-29T01:48:34.522Z,0
2016-09-29T01:49:34.494Z,0
2016-09-29T01:50:34.430Z,0
2016-09-29T01:51:34.600Z,0
2016-09-29T01:52:34.360Z,0
2016-09-29T01:53:34.499Z,0
2016-09-29T01:54:33.649Z,0
2016-09-29T01:55:34.218Z,0
2016-09-29T01:56:33.859Z,0
2016-09-29T01:57:33.401Z,0
2016-09-29T01:58:33.663Z,0
2016-09-29T01:59:33.706Z,0
2016-09-29T02:00:33.684Z,0
2016-09-29T02:01:34.023Z,0
2016-09-29T02:02:33.914Z,0
2016-09-29T02:03:33.854Z,0
2016-09-29T02:04:33.482Z,0
2016-09-29T02:05:33.619Z,0
2016-09-29T02:06:33.623Z,0
2016-09-29T02:07:33.554Z,0
2016-09-29T02:08:33.593Z,0
2016-09-29T02:09:33.259Z,0
2016-09-29T02:10:33.188Z,0
2016-09-29T02:11:33.456Z,0
2016-09-29T02:12:33.332Z,0
2016-09-29T02:13:33.562Z,0
2016-09-29T02:14:33.524Z,0
2016-09-29T02:15:32.961Z,0
2016-09-29T02:16:33.222Z,0
2016-09-29T02:17:33.058Z,0
2016-09-29T02:18:32.822Z,0
2016-09-29T02:19:32.961Z,0
2016-09-29T02:20:33.026Z,0
2016-09-29T02:21:33.172Z,0
2016-09-29T02:22:32.604Z,0
2016-09-29T02:23:32.571Z,0
2016-09-29T02:24:32.843Z,0
2016-09-29T02:25:33.392Z,0
2016-09-29T02:26:32.640Z,0
2016-09-29T02:27:32.692Z,0
2016-09-29T02:28:32.342Z,0
2016-09-29T02:29:32.802Z,0
2016-09-29T02:30:32.256Z,0
2016-09-29T02:31:32.522Z,0
2016-09-29T02:32:33.265Z,0
2016-09-29T02:33:32.301Z,0
2016-09-29T02:34:32.789Z,0
2016-09-29T02:35:32.060Z,0
2016-09-29T02:36:32.493Z,0
2016-09-29T02:37:32.112Z,0
2016-09-29T02:38:31.583Z,0
2016-09-29T02:39:32.222Z,0
2016-09-29T02:40:32.287Z,0
2016-09-29T02:41:32.237Z,0
2016-09-29T02:42:31.676Z,0
2016-09-29T02:43:31.557Z,0
2016-09-29T02:44:31.900Z,0
2016-09-29T02:45:31.548Z,0
2016-09-29T02:46:31.726Z,0
2016-09-29T02:47:31.794Z,0
2016-09-29T02:48:32.190Z,0
2016-09-29T02:49:31.708Z,0
2016-09-29T02:50:31.810Z,0
2016-09-29T02:51:30.957Z,0
2016-09-29T02:52:31.582Z,0
2016-09-29T02:53:31.883Z,0
2016-09-29T02:54:31.330Z,0
2016-09-29T02:55:31.265Z,0
2016-09-29T02:56:31.560Z,0
2016-09-29T02:57:31.702Z,0
2016-09-29T02:58:31.245Z,0
2016-09-29T02:59:30.777Z,0
2016-09-29T03:00:31.335Z,0
2016-09-29T03:01:31.911Z,0
2016-09-29T03:02:31.375Z,0
2016-09-29T03:03:31.282Z,0
2016-09-29T03:04:31.578Z,0
2016-09-29T03:05:31.504Z,0
2016-09-29T03:06:31.060Z,0
2016-09-29T03:07:31.007Z,0
2016-09-29T03:08:30.800Z,0
2016-09-29T03:09:31.108Z,0
2016-09-29T03:10:30.435Z,0
2016-09-29T03:11:30.309Z,0
2016-09-29T03:12:30.353Z,0
2016-09-29T03:13:30.724Z,0
2016-09-29T03:14:30.487Z,0
2016-09-29T03:15:30.423Z,0
2016-09-29T03:16:30.831Z,0
2016-09-29T03:17:30.031Z,0
2016-09-29T03:18:30.508Z,0
2016-09-29T03:19:30.234Z,0
2016-09-29T03:20:30.091Z,0
2016-09-29T03:21:29.763Z,0
2016-09-29T03:22:30.176Z,0
2016-09-29T03:23:30.299Z,0
2016-09-29T03:24:29.524Z,0
2016-09-29T03:25:29.664Z,0
2016-09-29T03:26:29.866Z,0
2016-09-29T03:27:29.851Z,0
2016-09-29T03:28:29.883Z,0
2016-09-29T03:29:30.056Z,0
2016-09-29T03:30:29.339Z,0
2016-09-29T03:31:29.402Z,0
2016-09-29T03:32:29.612Z,0
2016-09-29T03:33:29.279Z,0
2016-09-29T03:34:29.428Z,0
2016-09-29T03:35:29.753Z,0
2016-09-29T03:36:29.701Z,0
2016-09-29T03:37:29.790Z,0
2016-09-29T03:38:29.229Z,0
2016-09-29T03:39:29.498Z,0
2016-09-29T03:40:28.855Z,0
2016-09-29T03:41:29.394Z,0
2016-09-29T03:42:29.350Z,0
2016-09-29T03:43:28.779Z,0
2016-09-29T03:44:29.147Z,0
2016-09-29T03:45:28.381Z,0
2016-09-29T03:46:28.985Z,0
2016-09-29T03:47:28.906Z,0
2016-09-29T03:48:28.569Z,0
2016-09-29T03:49:29.065Z,0
2016-09-29T03:50:29.195Z,0
2016-09-29T03:51:28.410Z,0
2016-09-29T03:52:28.915Z,0
2016-09-29T03:53:28.525Z,0
2016-09-29T03:54:28.573Z,0
2016-09-29T03:55:28.422Z,0
2016-09-29T03:56:28.389Z,0
2016-09-29T03:57:27.812Z,0
2016-09-29T03:58:28.283Z,0
2016-09-29T03:59:28.372Z,0
2016-09-29T04:00:27.970Z,0
2016-09-29T04:01:28.287Z,0
2016-09-29T04:02:28.150Z,0
2016-09-29T04:03:28.157Z,0
2016-09-29T04:04:28.101Z,0
2016-09-29T04:05:27.520Z,0
2016-09-29T04:06:27.727Z,0
2016-09-29T04:07:27.344Z,0
2016-09-29T04:08:28.108Z,0
2016-09-29T04:09:27.551Z,0
2016-09-29T04:10:27.688Z,0
2016-09-29T04:11:28.020Z,0
2016-09-29T04:12:27.721Z,0
2016-09-29T04:13:27.873Z,0
2016-09-29T04:14:28.026Z,0
2016-09-29T04:15:27.883Z,0
2016-09-29T04:16:27.272Z,0
2016-09-29T04:17:27.474Z,0
2016-09-29T04:18:27.132Z,0
2016-09-29T04:19:27.132Z,0
2016-09-29T04:20:27.220Z,0
2016-09-29T04:21:27.062Z,0
2016-09-29T04:22:27.354Z,0
2016-09-29T04:23:26.885Z,0
2016-09-29T04:24:26.833Z,0
2016-09-29T04:25:26.784Z,0
2016-09-29T04:26:27.256Z,0
2016-09-29T04:27:26.890Z,0
2016-09-29T04:28:26.948Z,0
2016-09-29T04:29:27.124Z,0
2016-09-29T04:30:27.046Z,0
2016-09-29T04:31:26.827Z,0
2016-09-29T04:32:26.438Z,0
2016-09-29T04:33:26.728Z,0
2016-09-29T04:34:26.351Z,0
2016-09-29T04:35:26.330Z,0
2016-09-29T04:36:26.282Z,0
2016-09-29T04:37:26.558Z,0
2016-09-29T04:38:26.168Z,0
2016-09-29T04:39:26.124Z,0
2016-09-29T04:40:26.777Z,0
2016-09-29T04:41:26.371Z,0
2016-09-29T04:42:26.305Z,0
2016-09-29T04:43:26.245Z,0
2016-09-29T04:44:26.178Z,0
2016-09-29T04:45:26.242Z,0
2016-09-29T04:46:26.103Z,0
2016-09-29T04:47:26.055Z,0
2016-09-29T04:48:25.982Z,0
2016-09-29T04:49:26.164Z,0
2016-09-29T04:50:25.620Z,0
2016-09-29T04:51:25.544Z,0
2016-09-29T04:52:25.562Z,0
2016-09-29T04:53:25.746Z,0
2016-09-29T04:54:25.588Z,0
2016-09-29T04:55:25.350Z,0
2016-09-29T04:56:25.800Z,0
2016-09-29T04:57:25.572Z,0
2016-09-29T04:58:25.509Z,0
2016-09-29T04:59:25.476Z,0
2016-09-29T05:00:25.424Z,0
2016-09-29T05:01:25.373Z,0
2016-09-29T05:02:25.919Z,0
2016-09-29T05:03:25.285Z,0
2016-09-29T05:04:25.423Z,0
2016-09-29T05:05:24.868Z,0
2016-09-29T05:06:25.282Z,0
2016-09-29T05:07:25.098Z,0
2016-09-29T05:08:25.026Z,0
2016-09-29T05:09:25.011Z,0
2016-09-29T05:10:24.648Z,4
2016-09-29T05:11:24.966Z,4
2016-09-29T05:12:24.902Z,0
2016-09-29T05:13:24.682Z,4
2016-09-29T05:14:24.736Z,4
2016-09-29T05:15:24.689Z,4
2016-09-29T05:16:24.563Z,8
2016-09-29T05:17:24.303Z,8
2016-09-29T05:18:23.941Z,8
2016-09-29T05:19:24.713Z,12
2016-09-29T05:20:24.219Z,12
2016-09-29T05:21:23.853Z,12
2016-09-29T05:22:24.104Z,12
2016-09-29T05:23:24.317Z,20
2016-09-29T05:24:24.478Z,20
2016-09-29T05:25:23.902Z,20
2016-09-29T05:26:24.205Z,24
2016-09-29T05:27:24.538Z,28
2016-09-29T05:28:24.189Z,28
2016-09-29T05:29:23.720Z,36
2016-09-29T05:30:23.663Z,36
2016-09-29T05:31:23.927Z,36
2016-09-29T05:32:23.627Z,44
2016-09-29T05:33:23.832Z,48
2016-09-29T05:34:23.474Z,52
2016-09-29T05:35:23.629Z,56
2016-09-29T05:36:23.392Z,60
2016-09-29T05:37:23.335Z,60
2016-09-29T05:38:23.587Z,64
2016-09-29T05:39:22.623Z,68
2016-09-29T05:40:23.526Z,72
2016-09-29T05:41:23.467Z,76
2016-09-29T05:42:23.088Z,80
2016-09-29T05:43:23.455Z,88
2016-09-29T05:44:23.331Z,88
2016-09-29T05:45:22.991Z,92
2016-09-29T05:46:22.901Z,100
2016-09-29T05:47:23.169Z,104
2016-09-29T05:48:22.789Z,104
2016-09-29T05:49:22.800Z,112
2016-09-29T05:50:22.924Z,116
2016-09-29T05:51:22.397Z,120
2016-09-29T05:52:22.920Z,128
2016-09-29T05:53:22.978Z,132
2016-09-29T05:54:22.517Z,132
2016-09-29T05:55:22.771Z,140
2016-09-29T05:56:22.327Z,148
2016-09-29T05:57:22.715Z,148
2016-09-29T05:58:22.317Z,156
2016-09-29T05:59:22.605Z,160
2016-09-29T06:00:22.534Z,164
2016-09-29T06:01:22.503Z,172
2016-09-29T06:02:21.815Z,180
2016-09-29T06:03:21.780Z,184
2016-09-29T06:04:21.741Z,196
2016-09-29T06:05:22.299Z,200
2016-09-29T06:06:22.261Z,208
2016-09-29T06:07:22.602Z,212
2016-09-29T06:08:22.142Z,220
2016-09-29T06:09:22.110Z,224
2016-09-29T06:10:22.101Z,236
2016-09-29T06:11:22.004Z,244
2016-09-29T06:12:22.393Z,252
2016-09-29T06:13:21.621Z,252
2016-09-29T06:14:21.871Z,260
2016-09-29T06:15:21.570Z,268
2016-09-29T06:16:21.471Z,276
2016-09-29T06:17:21.716Z,292
2016-09-29T06:18:21.370Z,304
2016-09-29T06:19:21.623Z,312
2016-09-29T06:20:21.288Z,328
2016-09-29T06:21:20.919Z,356
2016-09-29T06:22:21.222Z,400
2016-09-29T06:23:20.887Z,464
2016-09-29T06:24:21.409Z,488
2016-09-29T06:25:21.343Z,512
2016-09-29T06:26:21.006Z,532
2016-09-29T06:27:20.944Z,552
2016-09-29T06:28:20.885Z,556
2016-09-29T06:29:20.825Z,588
2016-09-29T06:30:20.791Z,604
2016-09-29T06:31:21.075Z,616
2016-09-29T06:32:20.924Z,636
2016-09-29T06:33:20.357Z,656
2016-09-29T06:34:20.944Z,676
2016-09-29T06:35:20.573Z,680
2016-09-29T06:36:20.824Z,692
2016-09-29T06:37:20.769Z,708
2016-09-29T06:38:20.609Z,724
2016-09-29T06:39:20.665Z,732
2016-09-29T06:40:20.316Z,740
2016-09-29T06:41:20.771Z,744
2016-09-29T06:42:20.508Z,744
2016-09-29T06:43:20.471Z,752
2016-09-29T06:44:19.856Z,756
2016-09-29T06:45:20.369Z,768
2016-09-29T06:46:20.339Z,768
2016-09-29T06:47:20.183Z,768
2016-09-29T06:48:19.967Z,768
2016-09-29T06:49:19.916Z,732
2016-09-29T06:50:20.166Z,700
2016-09-29T06:51:20.097Z,560
2016-09-29T06:52:19.732Z,556
2016-09-29T06:53:19.695Z,572
2016-09-29T06:54:19.660Z,604
2016-09-29T06:55:19.897Z,732
2016-09-29T06:56:19.607Z,876
2016-09-29T06:57:19.826Z,752
2016-09-29T06:58:19.148Z,856
2016-09-29T06:59:19.402Z,944
2016-09-29T07:00:20.054Z,952
2016-09-29T07:01:19.672Z,972
2016-09-29T07:02:19.570Z,992
2016-09-29T07:03:19.528Z,1008
2016-09-29T07:04:19.209Z,1024
2016-09-29T07:05:19.493Z,1040
2016-09-29T07:06:19.183Z,1060
2016-09-29T07:07:19.243Z,1080
2016-09-29T07:08:19.692Z,1096
2016-09-29T07:09:19.866Z,1104
2016-09-29T07:10:19.093Z,1104
2016-09-29T07:11:18.840Z,1140
2016-09-29T07:12:18.849Z,1164
2016-09-29T07:13:18.455Z,1188
2016-09-29T07:14:19.256Z,1208
2016-09-29T07:15:18.660Z,1216
2016-09-29T07:16:18.612Z,1236
2016-09-29T07:17:18.855Z,1260
2016-09-29T07:18:18.191Z,1292
2016-09-29T07:19:18.169Z,1328
2016-09-29T07:20:18.719Z,1348
2016-09-29T07:21:18.695Z,1368
2016-09-29T07:22:18.009Z,1380
2016-09-29T07:23:18.785Z,1420
2016-09-29T07:24:18.248Z,1420
2016-09-29T07:25:18.766Z,1452
2016-09-29T07:26:17.872Z,1472
2016-09-29T07:27:21.768Z,1492
2016-09-29T07:28:18.400Z,1544
2016-09-29T07:29:18.560Z,1600
2016-09-29T07:30:18.155Z,1516
2016-09-29T07:31:18.138Z,1656
2016-09-29T07:32:17.950Z,1636
2016-09-29T07:33:17.623Z,1448
2016-09-29T07:34:18.125Z,1428
2016-09-29T07:35:18.104Z,1788
2016-09-29T07:36:18.030Z,1820
2016-09-29T07:37:18.206Z,1896
2016-09-29T07:38:17.869Z,1944
2016-09-29T07:39:17.848Z,1976
2016-09-29T07:40:18.521Z,1964
2016-09-29T07:41:17.458Z,1952
2016-09-29T07:42:16.832Z,1948
2016-09-29T07:43:17.408Z,2116
2016-09-29T07:44:17.447Z,2144
2016-09-29T07:45:17.392Z,2180
2016-09-29T07:46:17.351Z,2224
2016-09-29T07:47:17.688Z,2300
2016-09-29T07:48:17.429Z,2304
2016-09-29T07:49:17.280Z,2348
2016-09-29T07:50:17.825Z,2428
2016-09-29T07:51:17.235Z,2484
2016-09-29T07:53:17.269Z,2536
2016-09-29T07:54:17.398Z,2640
2016-09-29T07:55:17.199Z,2572
2016-09-29T07:56:17.733Z,2836
2016-09-29T07:57:17.651Z,3056
2016-09-29T07:58:18.467Z,3144
2016-09-29T07:59:17.136Z,3092
2016-09-29T08:00:17.058Z,3244
2016-09-29T08:01:17.457Z,3276
2016-09-29T08:02:16.475Z,2976
2016-09-29T08:03:16.413Z,2032
2016-09-29T08:04:16.679Z,1828
2016-09-29T08:05:16.987Z,1580
2016-09-29T08:06:16.020Z,1548
2016-09-29T08:07:16.324Z,1792
2016-09-29T08:08:16.464Z,1784
2016-09-29T08:09:16.264Z,1952
2016-09-29T08:10:16.160Z,1332
2016-09-29T08:11:16.302Z,1460
2016-09-29T08:12:15.734Z,1256
2016-09-29T08:13:16.089Z,1104
2016-09-29T08:14:16.251Z,960
2016-09-29T08:15:15.889Z,904
2016-09-29T08:16:16.294Z,964
2016-09-29T08:17:16.213Z,936
2016-09-29T08:18:16.142Z,1024
2016-09-29T08:19:16.267Z,968
2016-09-29T08:20:15.401Z,828
2016-09-29T08:21:15.989Z,876
2016-09-29T08:22:15.895Z,956
2016-09-29T08:23:15.231Z,948
2016-09-29T08:24:15.793Z,940
2016-09-29T08:25:15.485Z,968
2016-09-29T08:26:17.073Z,1060
2016-09-29T08:27:15.645Z,1116
2016-09-29T08:28:15.001Z,1068
2016-09-29T08:29:15.683Z,900
2016-09-29T08:30:15.177Z,972
2016-09-29T08:31:15.019Z,940
2016-09-29T08:32:15.082Z,940
2016-09-29T08:33:15.386Z,872
2016-09-29T08:34:15.482Z,808
2016-09-29T08:35:15.002Z,760
2016-09-29T08:36:14.594Z,744
2016-09-29T08:37:15.057Z,720
2016-09-29T08:38:15.145Z,692
2016-09-29T08:39:15.062Z,740
2016-09-29T08:40:14.555Z,732
2016-09-29T08:41:14.726Z,736
2016-09-29T08:42:14.633Z,788
2016-09-29T08:43:14.584Z,812
2016-09-29T08:44:14.492Z,804
2016-09-29T08:45:14.877Z,792
2016-09-29T08:46:14.216Z,828
2016-09-29T08:47:14.391Z,812
2016-09-29T08:48:14.383Z,812
2016-09-29T08:49:14.297Z,892
2016-09-29T08:50:14.489Z,956
2016-09-29T08:51:14.214Z,908
2016-09-29T08:52:14.523Z,1028
2016-09-29T08:53:14.444Z,1064
2016-09-29T08:54:14.132Z,1108
2016-09-29T08:55:14.047Z,1144
2016-09-29T08:56:13.970Z,1240
2016-09-29T08:57:14.224Z,1276
2016-09-29T08:58:14.228Z,1464
2016-09-29T08:59:13.903Z,1608
2016-09-29T09:00:14.492Z,1672
2016-09-29T09:01:13.878Z,1788
2016-09-29T09:02:14.314Z,1880
2016-09-29T09:03:13.483Z,1680
2016-09-29T09:04:13.673Z,1808
2016-09-29T09:05:13.635Z,1676
2016-09-29T09:06:13.720Z,1728
2016-09-29T09:07:13.768Z,1768
2016-09-29T09:08:13.759Z,1680
2016-09-29T09:09:13.243Z,1780
2016-09-29T09:10:13.754Z,1852
2016-09-29T09:11:13.606Z,1800
2016-09-29T09:12:12.990Z,1808
2016-09-29T09:13:13.886Z,1668
2016-09-29T09:14:13.296Z,1468
2016-09-29T09:15:13.400Z,1424
2016-09-29T09:16:13.328Z,1412
2016-09-29T09:17:12.990Z,1608
2016-09-29T09:18:12.980Z,2100
2016-09-29T09:19:12.973Z,1980
2016-09-29T09:20:13.042Z,1792
2016-09-29T09:21:12.827Z,1660
2016-09-29T09:22:12.767Z,1824
2016-09-29T09:23:13.116Z,2004
2016-09-29T09:24:12.426Z,3732
2016-09-29T09:25:13.287Z,2052
2016-09-29T09:26:12.958Z,2216
2016-09-29T09:27:12.652Z,2240
2016-09-29T09:28:12.779Z,2120
2016-09-29T09:29:12.886Z,1996
2016-09-29T09:30:12.568Z,2024
2016-09-29T09:31:12.675Z,2276
2016-09-29T09:32:12.044Z,2396
2016-09-29T09:33:12.277Z,2660
2016-09-29T09:34:12.231Z,3744
2016-09-29T09:35:12.852Z,3852
2016-09-29T09:36:12.159Z,3264
2016-09-29T09:37:12.360Z,4308
2016-09-29T09:38:12.354Z,3084
2016-09-29T09:39:11.976Z,5504
2016-09-29T09:40:11.817Z,3256
2016-09-29T09:42:11.639Z,2976
2016-09-29T09:43:17.526Z,4476
2016-09-29T09:44:12.581Z,2632
2016-09-29T09:45:12.076Z,2576
2016-09-29T09:46:11.740Z,2400
2016-09-29T09:47:11.920Z,1848
2016-09-29T09:48:11.853Z,1680
2016-09-29T09:49:11.521Z,1760
2016-09-29T09:50:11.761Z,1712
2016-09-29T09:51:11.441Z,1912
2016-09-29T09:52:11.484Z,2488
2016-09-29T09:53:11.436Z,2060
2016-09-29T09:54:11.605Z,2320
2016-09-29T09:55:11.812Z,2496
2016-09-29T09:56:11.595Z,2616
2016-09-29T09:57:11.143Z,4692
2016-09-29T09:58:11.193Z,3252
2016-09-29T09:59:11.003Z,2844
2016-09-29T10:00:11.447Z,5368
2016-09-29T10:01:10.982Z,5248
2016-09-29T10:02:11.483Z,4996
2016-09-29T10:03:10.873Z,4572
2016-09-29T10:04:10.528Z,2516
2016-09-29T10:05:11.062Z,4848
2016-09-29T10:06:11.281Z,4356
2016-09-29T10:07:11.231Z,4000
2016-09-29T10:08:10.554Z,3092
2016-09-29T10:09:11.819Z,4396
2016-09-29T10:10:11.142Z,4460
2016-09-29T10:11:10.214Z,4560
2016-09-29T10:12:10.684Z,4464
2016-09-29T10:13:10.732Z,4204
2016-09-29T10:14:11.589Z,4296
2016-09-29T10:15:10.369Z,4592
2016-09-29T10:16:11.335Z,2780
2016-09-29T10:17:10.286Z,2396
2016-09-29T10:18:10.604Z,3208
2016-09-29T10:19:10.139Z,1988
2016-09-29T10:20:10.453Z,1752
2016-09-29T10:21:10.607Z,2040
2016-09-29T10:22:09.921Z,2268
2016-09-29T10:23:10.009Z,2304
2016-09-29T10:24:10.439Z,1644
2016-09-29T10:25:10.192Z,2416
2016-09-29T10:26:10.153Z,3624
2016-09-29T10:27:10.209Z,3572
2016-09-29T10:28:10.195Z,3560
2016-09-29T10:29:09.700Z,3564
2016-09-29T10:30:10.215Z,3732
2016-09-29T10:31:09.739Z,3832
2016-09-29T10:32:10.469Z,3596
2016-09-29T10:33:10.750Z,3512
2016-09-29T10:34:09.515Z,2624
2016-09-29T10:35:09.746Z,1764
2016-09-29T10:36:09.424Z,2268
2016-09-29T10:37:10.049Z,3732
2016-09-29T10:38:09.293Z,3656
2016-09-29T10:39:09.260Z,3260
2016-09-29T10:40:09.280Z,3800
2016-09-29T10:41:09.536Z,3768
2016-09-29T10:42:09.542Z,3592
2016-09-29T10:43:09.471Z,3492
2016-09-29T10:44:09.658Z,2992
2016-09-29T10:45:09.678Z,3800
2016-09-29T10:46:08.945Z,3868
2016-09-29T10:47:09.718Z,3880
2016-09-29T10:48:09.236Z,3984
2016-09-29T10:49:09.165Z,4192
2016-09-29T10:50:09.290Z,4232
2016-09-29T10:51:08.611Z,4296
2016-09-29T10:52:08.995Z,4336
2016-09-29T10:53:09.059Z,2988
2016-09-29T10:54:08.808Z,4424
2016-09-29T10:55:08.925Z,4464
2016-09-29T10:56:08.482Z,4532
2016-09-29T10:57:08.434Z,4584
2016-09-29T10:58:08.418Z,4392
2016-09-29T10:59:08.867Z,4280
2016-09-29T11:00:08.429Z,3892
2016-09-29T11:01:08.660Z,3988
2016-09-29T11:02:08.409Z,3092
2016-09-29T11:03:08.414Z,3872
2016-09-29T11:04:08.575Z,4388
2016-09-29T11:05:08.619Z,4440
2016-09-29T11:06:08.357Z,2412
2016-09-29T11:07:08.033Z,1544
2016-09-29T11:08:08.077Z,2124
2016-09-29T11:09:08.248Z,3764
2016-09-29T11:10:08.114Z,3836
2016-09-29T11:11:07.625Z,1916
2016-09-29T11:12:07.496Z,2180
2016-09-29T11:13:08.098Z,1492
2016-09-29T11:14:08.004Z,1716
2016-09-29T11:15:08.031Z,1768
2016-09-29T11:16:07.821Z,1556
2016-09-29T11:17:07.913Z,1684
2016-09-29T11:18:08.141Z,2632
2016-09-29T11:19:07.482Z,4172
2016-09-29T11:20:07.727Z,2804
2016-09-29T11:21:07.440Z,4252
2016-09-29T11:22:07.475Z,3608
2016-09-29T11:23:07.275Z,2796
2016-09-29T11:24:07.254Z,3956
2016-09-29T11:25:06.884Z,4092
2016-09-29T11:26:06.914Z,3164
2016-09-29T11:27:06.822Z,3476
2016-09-29T11:28:07.154Z,4108
2016-09-29T11:29:07.271Z,3968
2016-09-29T11:30:06.999Z,3984
2016-09-29T11:31:06.935Z,3832
2016-09-29T11:32:06.923Z,3548
2016-09-29T11:33:06.543Z,2144
2016-09-29T11:34:07.053Z,3016
2016-09-29T11:35:06.866Z,3760
2016-09-29T11:36:07.076Z,4040
2016-09-29T11:37:07.037Z,4148
2016-09-29T11:38:06.672Z,3380
2016-09-29T11:39:06.639Z,4096
2016-09-29T11:40:07.085Z,4468
2016-09-29T11:41:06.811Z,4376
2016-09-29T11:42:07.004Z,4432
2016-09-29T11:43:06.700Z,3588
2016-09-29T11:44:06.349Z,2072
2016-09-29T11:45:06.621Z,1732
2016-09-29T11:46:06.559Z,3084
2016-09-29T11:47:06.263Z,4416
2016-09-29T11:48:06.398Z,4372
2016-09-29T11:49:06.176Z,4436
2016-09-29T11:50:06.735Z,3612
2016-09-29T11:51:06.397Z,3916
2016-09-29T11:52:05.995Z,2656
2016-09-29T11:53:05.982Z,2892
2016-09-29T11:54:06.211Z,2868
2016-09-29T11:55:06.243Z,3188
2016-09-29T11:56:06.176Z,2752
2016-09-29T11:57:05.842Z,2492
2016-09-29T11:58:06.164Z,2588
2016-09-29T11:59:06.087Z,2372
2016-09-29T12:00:05.721Z,3600
2016-09-29T12:01:06.025Z,3552
2016-09-29T12:02:07.173Z,2876
2016-09-29T12:03:05.556Z,2656
2016-09-29T12:04:05.842Z,2204
2016-09-29T12:05:05.157Z,2200
2016-09-29T12:06:05.636Z,2376
2016-09-29T12:07:07.117Z,2380
2016-09-29T12:08:05.895Z,3492
2016-09-29T12:09:05.409Z,5120
2016-09-29T12:10:05.137Z,5036
2016-09-29T12:11:05.176Z,4996
2016-09-29T12:12:05.872Z,3808
2016-09-29T12:13:05.102Z,2784
2016-09-29T12:14:05.245Z,3600
2016-09-29T12:15:05.391Z,4880
2016-09-29T12:16:05.002Z,4716
2016-09-29T12:17:05.263Z,4536
2016-09-29T12:18:05.240Z,4412
2016-09-29T12:19:04.586Z,3380
2016-09-29T12:20:05.120Z,4268
2016-09-29T12:21:05.224Z,3912
2016-09-29T12:22:05.038Z,3548
2016-09-29T12:23:04.942Z,4080
2016-09-29T12:24:04.812Z,4196
2016-09-29T12:25:04.558Z,3456
2016-09-29T12:26:04.517Z,2652
2016-09-29T12:27:04.475Z,3172
2016-09-29T12:28:04.957Z,3380
2016-09-29T12:29:05.001Z,3880
2016-09-29T12:30:04.654Z,4664
2016-09-29T12:31:04.614Z,4600
2016-09-29T12:32:04.098Z,4636
2016-09-29T12:33:04.534Z,4616
2016-09-29T12:34:04.200Z,4372
2016-09-29T12:35:05.131Z,3208
2016-09-29T12:36:04.651Z,2784
2016-09-29T12:37:04.304Z,3760
2016-09-29T12:38:04.386Z,3724
2016-09-29T12:39:04.149Z,4624
2016-09-29T12:40:04.305Z,4716
2016-09-29T12:41:04.240Z,4792
2016-09-29T12:42:04.180Z,4768
2016-09-29T12:43:04.286Z,4696
2016-09-29T12:44:03.771Z,4248
2016-09-29T12:45:03.743Z,4660
2016-09-29T12:46:04.159Z,4532
2016-09-29T12:47:04.149Z,4464
2016-09-29T12:48:03.973Z,3888
2016-09-29T12:49:03.859Z,4444
2016-09-29T12:50:04.623Z,4860
2016-09-29T12:51:03.153Z,4924
2016-09-29T12:52:03.943Z,3644
2016-09-29T12:53:04.104Z,3464
2016-09-29T12:54:03.870Z,3856
2016-09-29T12:55:03.368Z,3660
2016-09-29T12:56:03.929Z,2852
2016-09-29T12:57:03.773Z,2360
2016-09-29T12:58:03.649Z,2216
2016-09-29T12:59:03.285Z,2156
2016-09-29T13:00:03.625Z,3492
2016-09-29T13:01:03.087Z,2448
2016-09-29T13:02:03.527Z,2628
2016-09-29T13:03:03.232Z,2928
2016-09-29T13:04:03.074Z,3048
2016-09-29T13:05:03.119Z,3628
2016-09-29T13:06:03.125Z,2560
2016-09-29T13:07:03.191Z,2436
2016-09-29T13:08:03.657Z,2220
2016-09-29T13:09:02.657Z,3480
2016-09-29T13:10:02.523Z,2268
2016-09-29T13:11:02.594Z,2664
2016-09-29T13:12:03.175Z,1944
2016-09-29T13:13:02.895Z,2928
2016-09-29T13:14:02.972Z,3408
2016-09-29T13:15:02.713Z,3852
2016-09-29T13:16:02.876Z,3584
2016-09-29T13:17:03.076Z,3656
2016-09-29T13:18:03.593Z,4188
2016-09-29T13:19:03.508Z,3396
2016-09-29T13:20:02.548Z,2584
2016-09-29T13:21:03.093Z,3024
2016-09-29T13:22:01.946Z,2536
2016-09-29T13:23:02.453Z,3800
2016-09-29T13:24:02.231Z,3104
2016-09-29T13:25:02.500Z,3688
2016-09-29T13:26:01.884Z,3164
2016-09-29T13:27:01.885Z,4604
2016-09-29T13:28:02.186Z,3384
2016-09-29T13:29:02.090Z,4632
2016-09-29T13:30:01.963Z,4564
2016-09-29T13:31:01.894Z,4668
2016-09-29T13:32:01.850Z,3376
2016-09-29T13:33:01.942Z,2628
2016-09-29T13:34:01.931Z,2316
2016-09-29T13:35:01.915Z,2580
2016-09-29T13:36:01.501Z,2256
2016-09-29T13:37:01.943Z,2304
2016-09-29T13:38:02.269Z,2956
2016-09-29T13:39:01.559Z,2972
2016-09-29T13:40:01.684Z,4448
2016-09-29T13:41:01.695Z,4460
2016-09-29T13:42:01.765Z,3276
2016-09-29T13:43:00.883Z,2404
2016-09-29T13:44:01.437Z,1836
2016-09-29T13:45:01.140Z,1540
2016-09-29T13:46:01.398Z,1464
2016-09-29T13:47:01.262Z,1452
2016-09-29T13:48:01.959Z,1756
2016-09-29T13:49:01.669Z,1896
2016-09-29T13:50:00.976Z,1784
2016-09-29T13:51:01.312Z,1816
2016-09-29T13:52:00.785Z,1700
2016-09-29T13:53:00.790Z,1716
2016-09-29T13:54:00.391Z,1860
2016-09-29T13:55:00.559Z,2532
2016-09-29T13:56:00.925Z,2196
2016-09-29T13:57:01.600Z,2448